createdAt,value
2024-03-01T00:02:09.283Z,100.00
2024-03-01T00:11:22.495Z,100.00
2024-03-01T00:14:33.505Z,100.00
2024-03-01T00:25:06.188Z,100.00
2024-03-01T00:27:37.989Z,100.00
2024-03-01T00:30:08.220Z,100.00
2024-03-01T00:32:35.401Z,100.00
2024-03-01T00:37:45.026Z,100.00
2024-03-01T00:42:58.986Z,100.00
2024-03-01T03:11:07.224Z,100.00
2024-03-01T03:30:45.733Z,100.00
2024-03-01T03:33:12.303Z,100.00
2024-03-01T03:36:41.823Z,100.00
2024-03-01T03:39:08.623Z,100.00
2024-03-01T03:41:35.906Z,100.00
2024-03-01T03:44:05.427Z,100.00
2024-03-01T03:46:32.109Z,100.00
2024-03-01T03:49:03.243Z,100.00
2024-03-01T03:51:31.805Z,100.00
2024-03-01T03:53:58.547Z,100.00
2024-03-01T03:59:07.410Z,100.00
2024-03-01T04:05:21.287Z,100.00
2024-03-01T04:11:10.344Z,100.00
2024-03-01T07:37:49.264Z,100.00
2024-03-01T07:52:43.197Z,100.00
2024-03-01T10:05:11.835Z,96.91
2024-03-01T10:07:53.845Z,96.64
2024-03-01T10:10:47.619Z,97.10
2024-03-01T10:21:05.966Z,95.83
2024-03-01T10:45:36.146Z,94.08
2024-03-01T11:46:15.162Z,86.86
2024-03-01T15:17:10.039Z,74.99
2024-03-01T16:11:26.287Z,79.61
2024-03-01T16:13:55.357Z,80.11
2024-03-01T16:16:32.294Z,80.00
2024-03-01T16:19:04.921Z,79.41
2024-03-01T16:21:40.716Z,80.19
2024-03-01T16:24:13.598Z,80.71
2024-03-01T16:26:46.367Z,79.90
2024-03-01T16:29:22.618Z,79.67
2024-03-01T16:32:05.583Z,79.56
2024-03-01T16:34:38.415Z,80.22
2024-03-01T16:37:24.996Z,79.29
2024-03-01T16:40:12.434Z,79.41
2024-03-01T16:43:05.982Z,79.27
2024-03-01T16:45:36.490Z,79.12
2024-03-01T16:48:50.140Z,79.36
2024-03-01T16:51:46.354Z,80.14
2024-03-01T16:54:35.538Z,80.00
2024-03-01T16:57:54.562Z,79.76
2024-03-01T17:00:40.525Z,79.27
2024-03-01T17:06:30.987Z,78.94
2024-03-01T17:09:18.248Z,79.05
2024-03-01T17:12:11.176Z,79.43
2024-03-01T17:15:16.799Z,79.48
2024-03-01T17:19:01.343Z,78.96
2024-03-01T17:21:11.685Z,79.46
2024-03-01T17:24:06.422Z,78.87
2024-03-01T17:27:18.950Z,78.55
2024-03-01T17:30:16.041Z,79.11
2024-03-01T17:33:18.281Z,79.10
2024-03-01T17:36:15.793Z,79.54
2024-03-01T17:38:49.061Z,79.15
2024-03-01T17:41:32.960Z,79.10
2024-03-01T17:44:13.204Z,79.17
2024-03-01T17:46:44.749Z,78.80
2024-03-01T17:49:16.311Z,79.29
2024-03-01T17:51:56.305Z,78.87
2024-03-01T17:54:40.247Z,78.80
2024-03-01T17:57:12.171Z,78.97
2024-03-01T17:59:50.706Z,78.27
2024-03-01T18:02:35.485Z,78.67
2024-03-01T18:05:11.102Z,79.07
2024-03-01T18:07:37.906Z,78.54
2024-03-01T18:10:13.553Z,78.63
2024-03-01T18:12:41.609Z,78.30
2024-03-01T18:15:11.710Z,78.35
2024-03-01T18:17:40.652Z,78.46
2024-03-01T18:20:09.465Z,77.59
2024-03-01T18:29:41.968Z,77.70
2024-03-01T18:32:10.489Z,77.84
2024-03-01T18:34:37.336Z,78.45
2024-03-01T18:37:05.086Z,78.11
2024-03-01T18:39:31.804Z,78.04
2024-03-01T18:41:58.321Z,77.72
2024-03-01T18:44:24.788Z,78.00
2024-03-01T18:46:51.436Z,77.72
2024-03-01T18:49:19.235Z,78.41
2024-03-01T18:51:45.802Z,77.90
2024-03-01T18:54:18.173Z,78.19
2024-03-01T18:56:44.647Z,78.30
2024-03-01T18:59:12.509Z,78.13
2024-03-01T19:01:39.561Z,78.34
2024-03-01T19:04:06.228Z,78.65
2024-03-01T19:06:32.834Z,78.94
2024-03-01T19:08:59.264Z,78.68
2024-03-01T19:11:26.486Z,78.58
2024-03-01T19:13:55.113Z,79.70
2024-03-01T19:16:21.693Z,79.46
2024-03-01T19:18:48.423Z,79.90
2024-03-01T19:21:15.288Z,80.07
2024-03-01T19:23:41.750Z,80.34
2024-03-01T19:26:08.472Z,80.55
2024-03-01T19:28:34.981Z,80.23
2024-03-01T19:31:01.809Z,80.26
2024-03-01T19:33:28.376Z,80.38
2024-03-01T19:35:55.232Z,80.40
2024-03-01T19:38:23.014Z,80.21
2024-03-01T19:40:53.898Z,80.34
2024-03-01T19:43:22.239Z,80.42
2024-03-01T19:45:48.770Z,81.04
2024-03-01T19:48:15.321Z,81.30
2024-03-01T19:50:41.859Z,81.15
2024-03-01T19:53:09.106Z,80.80
2024-03-01T19:55:35.555Z,80.26
2024-03-01T19:58:02.125Z,80.88
2024-03-01T20:00:28.607Z,81.59
2024-03-01T20:02:55.448Z,80.19
2024-03-01T20:05:21.894Z,81.28
2024-03-01T20:07:48.569Z,80.71
2024-03-01T20:10:15.070Z,80.97
2024-03-01T20:12:41.515Z,81.00
2024-03-01T20:15:08.397Z,80.55
2024-03-01T20:17:34.913Z,80.76
2024-03-01T20:20:01.376Z,81.46
2024-03-01T20:22:28.160Z,81.21
2024-03-01T20:24:54.674Z,81.55
2024-03-01T20:27:21.220Z,81.28
2024-03-01T20:29:47.860Z,81.30
2024-03-01T20:32:14.518Z,81.47
2024-03-01T20:34:43.004Z,80.78
2024-03-01T20:37:10.084Z,80.80
2024-03-01T20:39:36.504Z,80.72
2024-03-01T20:42:03.007Z,80.63
2024-03-01T20:44:33.111Z,80.72
2024-03-01T20:46:59.612Z,80.97
2024-03-01T20:49:26.395Z,80.26
2024-03-01T20:51:52.929Z,81.09
2024-03-01T20:54:19.713Z,80.77
2024-03-01T20:56:46.131Z,80.29
2024-03-01T20:59:12.521Z,80.11
2024-03-01T21:01:39.062Z,80.61
2024-03-01T21:04:05.548Z,80.75
2024-03-01T21:06:35.306Z,80.38
2024-03-01T21:09:02.024Z,80.19
2024-03-01T21:11:28.562Z,80.29
2024-03-01T21:13:55.122Z,80.26
2024-03-01T21:16:21.839Z,79.57
2024-03-01T21:18:48.883Z,79.30
2024-03-01T21:21:18.122Z,79.05
2024-03-01T21:23:45.297Z,79.18
2024-03-01T21:26:12.395Z,79.81
2024-03-01T21:28:39.033Z,80.21
2024-03-01T21:31:05.476Z,79.77
2024-03-01T21:33:32.404Z,79.41
2024-03-01T21:36:01.455Z,78.46
2024-03-01T21:38:27.932Z,79.56
2024-03-01T21:40:54.334Z,78.61
2024-03-01T21:43:23.424Z,78.65
2024-03-01T21:45:50.058Z,79.25
2024-03-01T21:48:16.696Z,79.18
2024-03-01T21:50:43.646Z,79.27
2024-03-01T21:53:10.258Z,79.13
2024-03-01T21:55:37.843Z,78.88
2024-03-01T21:58:04.519Z,78.67
2024-03-01T22:00:30.976Z,78.46
2024-03-01T22:02:59.318Z,78.81
2024-03-01T22:05:25.708Z,78.32
2024-03-01T22:08:02.663Z,78.20
2024-03-01T22:10:36.597Z,78.36
2024-03-01T22:13:03.140Z,78.84
2024-03-01T22:15:29.613Z,78.53
2024-03-01T22:17:58.686Z,79.48
2024-03-01T22:20:25.020Z,79.45
2024-03-01T22:22:51.413Z,78.95
2024-03-01T22:25:20.629Z,78.91
2024-03-01T22:27:47.228Z,78.95
2024-03-01T22:30:14.509Z,79.31
2024-03-01T22:32:43.382Z,78.66
2024-03-01T22:35:10.323Z,78.67
2024-03-01T22:37:38.161Z,79.55
2024-03-01T22:40:06.139Z,79.37
2024-03-01T22:42:32.983Z,79.27
2024-03-01T22:45:00.239Z,79.35
2024-03-01T22:47:26.883Z,78.89
2024-03-01T22:49:55.002Z,78.55
2024-03-01T22:52:31.894Z,79.08
2024-03-01T22:54:59.662Z,79.33
2024-03-01T22:57:41.272Z,78.58
2024-03-01T23:00:20.522Z,79.61
2024-03-01T23:02:55.442Z,79.44
2024-03-01T23:05:46.627Z,79.33
2024-03-01T23:08:37.616Z,79.42
2024-03-01T23:11:30.396Z,79.91
2024-03-01T23:13:56.958Z,79.57
2024-03-01T23:16:23.532Z,79.33
2024-03-01T23:18:50.871Z,79.68
2024-03-01T23:21:17.309Z,79.83
2024-03-01T23:23:43.802Z,79.86
2024-03-01T23:26:10.374Z,79.85
2024-03-01T23:28:36.742Z,79.95
2024-03-01T23:31:04.110Z,80.50
2024-03-01T23:33:30.618Z,79.30
2024-03-01T23:35:58.082Z,80.00
2024-03-01T23:38:24.612Z,79.30
2024-03-01T23:40:52.483Z,79.51
2024-03-01T23:43:20.435Z,79.13
2024-03-01T23:45:47.102Z,79.06
2024-03-01T23:48:13.958Z,79.26
2024-03-01T23:50:41.391Z,79.20
2024-03-01T23:53:10.670Z,79.51
2024-03-01T23:55:38.542Z,79.98
2024-03-01T23:58:05.008Z,79.21
